PWSweather.com
Personal Weather Stations
Station Observations
RIORANCHO
Corrales Heights, Rio Rancho, NM 87124

Corrales HeightsRio Rancho, NM 87124

Lat: 35.241928, Lon: -106.647095

Elevation: 5297

Station Type: Davis Vantage Pro 2 Plus

http://www.weatherriorancho.com

High Low Average
Temperature 39.6°F4.2°C 22.0°F-5.6°C 29.2°F-1.6°C
Dew Point 21.4°F-5.9°C 14.0°F-10.0°C 17.6°F-8.0°C
Winds 5.8 mph 9.3 kmh Calm Calm 1.0 mph SW1.6 kmh SW
Wind Gusts 8.1 mph13.0 kmh -- 2.0 mph3.2 kmh
Humidity 74% 47% 62%
Pressure 30.47 in1031.8 mb 30.35 in1027.8 mb -
Precipitation 0.00 in0.0 mm - -
Hour Temp Dew Point Humidity Winds Wind Gusts Pressure Precip Precip Rate Daily Precip Total
12:00 AM 29.9°F-1.2°C 21.0°F-6.1°C 69% 1.2 mph W1.9 kmh W 8.1 mph13.0 kmh 30.35 in1027.8 mb - 0.00 in0.0 mm 0.00 in0.0 mm
12:10 AM 29.4°F-1.4°C 20.8°F-6.2°C 70% 3.5 mph W5.6 kmh W 4.6 mph7.4 kmh 30.35 in1027.8 mb - 0.00 in0.0 mm 0.00 in0.0 mm
12:20 AM 29.1°F-1.6°C 20.5°F-6.4°C 70% 3.5 mph NW5.6 kmh NW 6.9 mph11.1 kmh 30.36 in1028.1 mb - 0.00 in0.0 mm 0.00 in0.0 mm
12:30 AM 28.8°F-1.8°C 20.2°F-6.6°C 70% Calm Calm 3.5 mph5.6 kmh 30.36 in1028.1 mb - 0.00 in0.0 mm 0.00 in0.0 mm
12:40 AM 28.4°F-2.0°C 19.9°F-6.7°C 70% 1.2 mph NW1.9 kmh NW 3.5 mph5.6 kmh 30.36 in1028.1 mb - 0.00 in0.0 mm 0.00 in0.0 mm
12:50 AM 28.0°F-2.2°C 19.5°F-6.9°C 70% 1.2 mph NW1.9 kmh NW 5.8 mph9.3 kmh 30.37 in1028.4 mb - 0.00 in0.0 mm 0.00 in0.0 mm
01:00 AM 27.7°F-2.4°C 19.5°F-6.9°C 71% 2.3 mph NW3.7 kmh NW 3.5 mph5.6 kmh 30.37 in1028.4 mb - 0.00 in0.0 mm 0.00 in0.0 mm
01:10 AM 27.4°F-2.6°C 19.2°F-7.1°C 71% Calm Calm 3.5 mph5.6 kmh 30.37 in1028.4 mb - 0.00 in0.0 mm 0.00 in0.0 mm
01:20 AM 27.1°F-2.7°C 18.9°F-7.3°C 71% Calm Calm 1.2 mph1.9 kmh 30.36 in1028.1 mb - 0.00 in0.0 mm 0.00 in0.0 mm
01:30 AM 26.8°F-2.9°C 18.7°F-7.4°C 71% Calm Calm 2.3 mph3.7 kmh 30.36 in1028.1 mb - 0.00 in0.0 mm 0.00 in0.0 mm
01:40 AM 26.5°F-3.1°C 18.4°F-7.6°C 71% Calm Calm 1.2 mph1.9 kmh 30.36 in1028.1 mb - 0.00 in0.0 mm 0.00 in0.0 mm
01:50 AM 26.1°F-3.3°C 18.3°F-7.6°C 72% 2.3 mph NW3.7 kmh NW 4.6 mph7.4 kmh 30.37 in1028.4 mb - 0.00 in0.0 mm 0.00 in0.0 mm
02:00 AM 25.8°F-3.4°C 18.1°F-7.7°C 72% Calm Calm 2.3 mph3.7 kmh 30.38 in1028.8 mb - 0.00 in0.0 mm 0.00 in0.0 mm
02:10 AM 25.6°F-3.6°C 17.8°F-7.9°C 72% 1.2 mph NW1.9 kmh NW 3.5 mph5.6 kmh 30.37 in1028.4 mb - 0.00 in0.0 mm 0.00 in0.0 mm
02:20 AM 25.4°F-3.7°C 17.6°F-8.0°C 72% Calm Calm 2.3 mph3.7 kmh 30.38 in1028.8 mb - 0.00 in0.0 mm 0.00 in0.0 mm
02:30 AM 25.3°F-3.7°C 17.9°F-7.8°C 73% 3.5 mph NW5.6 kmh NW 5.8 mph9.3 kmh 30.38 in1028.8 mb - 0.00 in0.0 mm 0.00 in0.0 mm
02:40 AM 25.1°F-3.8°C 17.7°F-7.9°C 73% 3.5 mph NW5.6 kmh NW 3.5 mph5.6 kmh 30.38 in1028.8 mb - 0.00 in0.0 mm 0.00 in0.0 mm
02:50 AM 24.9°F-3.9°C 17.5°F-8.1°C 73% 1.2 mph NW1.9 kmh NW 3.5 mph5.6 kmh 30.39 in1029.1 mb - 0.00 in0.0 mm 0.00 in0.0 mm
03:00 AM 24.7°F-4.1°C 17.3°F-8.2°C 73% 1.2 mph NW1.9 kmh NW 2.3 mph3.7 kmh 30.39 in1029.1 mb - 0.00 in0.0 mm 0.00 in0.0 mm
03:10 AM 24.4°F-4.2°C 17.0°F-8.3°C 73% Calm Calm -- 30.39 in1029.1 mb - 0.00 in0.0 mm 0.00 in0.0 mm
03:20 AM 24.2°F-4.3°C 17.1°F-8.3°C 74% 2.3 mph NW3.7 kmh NW 6.9 mph11.1 kmh 30.39 in1029.1 mb - 0.00 in0.0 mm 0.00 in0.0 mm
03:30 AM 24.0°F-4.4°C 16.9°F-8.4°C 74% 3.5 mph NW5.6 kmh NW 4.6 mph7.4 kmh 30.40 in1029.5 mb - 0.00 in0.0 mm 0.00 in0.0 mm
03:40 AM 23.9°F-4.5°C 16.8°F-8.4°C 74% 2.3 mph NW3.7 kmh NW 3.5 mph5.6 kmh 30.40 in1029.5 mb - 0.00 in0.0 mm 0.00 in0.0 mm
03:50 AM 23.7°F-4.6°C 16.6°F-8.6°C 74% 4.6 mph NW7.4 kmh NW 6.9 mph11.1 kmh 30.40 in1029.5 mb - 0.00 in0.0 mm 0.00 in0.0 mm
04:00 AM 23.6°F-4.7°C 16.5°F-8.6°C 74% 4.6 mph NW7.4 kmh NW 4.6 mph7.4 kmh 30.40 in1029.5 mb - 0.00 in0.0 mm 0.00 in0.0 mm
04:10 AM 23.5°F-4.7°C 16.4°F-8.7°C 74% 2.3 mph NW3.7 kmh NW 4.6 mph7.4 kmh 30.40 in1029.5 mb - 0.00 in0.0 mm 0.00 in0.0 mm
04:20 AM 23.5°F-4.7°C 16.4°F-8.7°C 74% 4.6 mph NW7.4 kmh NW 4.6 mph7.4 kmh 30.40 in1029.5 mb - 0.00 in0.0 mm 0.00 in0.0 mm
04:30 AM 23.5°F-4.7°C 16.4°F-8.7°C 74% 2.3 mph NW3.7 kmh NW 3.5 mph5.6 kmh 30.41 in1029.8 mb - 0.00 in0.0 mm 0.00 in0.0 mm
04:40 AM 23.6°F-4.7°C 16.5°F-8.6°C 74% 3.5 mph NW5.6 kmh NW 4.6 mph7.4 kmh 30.41 in1029.8 mb - 0.00 in0.0 mm 0.00 in0.0 mm
04:50 AM 24.0°F-4.4°C 16.9°F-8.4°C 74% 3.5 mph NW5.6 kmh NW 4.6 mph7.4 kmh 30.41 in1029.8 mb - 0.00 in0.0 mm 0.00 in0.0 mm
05:00 AM 24.5°F-4.2°C 17.1°F-8.3°C 73% 3.5 mph NW5.6 kmh NW 5.8 mph9.3 kmh 30.41 in1029.8 mb - 0.00 in0.0 mm 0.00 in0.0 mm
05:10 AM 25.0°F-3.9°C 16.9°F-8.4°C 71% Calm Calm 2.3 mph3.7 kmh 30.41 in1029.8 mb - 0.00 in0.0 mm 0.00 in0.0 mm
05:20 AM 25.3°F-3.7°C 16.9°F-8.4°C 70% 2.3 mph NNW3.7 kmh NNW 3.5 mph5.6 kmh 30.41 in1029.8 mb - 0.00 in0.0 mm 0.00 in0.0 mm
05:30 AM 25.5°F-3.6°C 17.1°F-8.3°C 70% 1.2 mph NNW1.9 kmh NNW 3.5 mph5.6 kmh 30.41 in1029.8 mb - 0.00 in0.0 mm 0.00 in0.0 mm
05:40 AM 25.6°F-3.6°C 16.8°F-8.4°C 69% Calm Calm 2.3 mph3.7 kmh 30.41 in1029.8 mb - 0.00 in0.0 mm 0.00 in0.0 mm
05:50 AM 25.7°F-3.5°C 16.6°F-8.6°C 68% 1.2 mph NNW1.9 kmh NNW 2.3 mph3.7 kmh 30.41 in1029.8 mb - 0.00 in0.0 mm 0.00 in0.0 mm
06:00 AM 25.7°F-3.5°C 16.6°F-8.6°C 68% 3.5 mph NNW5.6 kmh NNW 4.6 mph7.4 kmh 30.41 in1029.8 mb - 0.00 in0.0 mm 0.00 in0.0 mm
06:10 AM 25.7°F-3.5°C 16.3°F-8.7°C 67% 2.3 mph NNW3.7 kmh NNW 4.6 mph7.4 kmh 30.41 in1029.8 mb - 0.00 in0.0 mm 0.00 in0.0 mm
06:20 AM 25.8°F-3.4°C 16.3°F-8.7°C 67% 4.6 mph N7.4 kmh N 8.1 mph13.0 kmh 30.41 in1029.8 mb - 0.00 in0.0 mm 0.00 in0.0 mm
06:30 AM 25.8°F-3.4°C 16.0°F-8.9°C 66% 2.3 mph N3.7 kmh N 3.5 mph5.6 kmh 30.41 in1029.8 mb - 0.00 in0.0 mm 0.00 in0.0 mm
06:40 AM 25.8°F-3.4°C 16.0°F-8.9°C 66% 2.3 mph N3.7 kmh N 3.5 mph5.6 kmh 30.41 in1029.8 mb - 0.00 in0.0 mm 0.00 in0.0 mm
06:50 AM 25.8°F-3.4°C 16.0°F-8.9°C 66% Calm Calm -- 30.41 in1029.8 mb - 0.00 in0.0 mm 0.00 in0.0 mm
07:00 AM 25.9°F-3.4°C 16.1°F-8.8°C 66% Calm Calm -- 30.41 in1029.8 mb - 0.00 in0.0 mm 0.00 in0.0 mm
07:10 AM 25.9°F-3.4°C 15.8°F-9.0°C 65% Calm Calm -- 30.41 in1029.8 mb - 0.00 in0.0 mm 0.00 in0.0 mm
07:20 AM 26.0°F-3.3°C 15.8°F-9.0°C 65% Calm Calm 2.3 mph3.7 kmh 30.41 in1029.8 mb - 0.00 in0.0 mm 0.00 in0.0 mm
07:30 AM 26.1°F-3.3°C 16.3°F-8.7°C 66% Calm Calm 1.2 mph1.9 kmh 30.41 in1029.8 mb - 0.00 in0.0 mm 0.00 in0.0 mm
07:40 AM 26.2°F-3.2°C 16.0°F-8.9°C 65% Calm Calm -- 30.41 in1029.8 mb - 0.00 in0.0 mm 0.00 in0.0 mm
07:50 AM 26.3°F-3.2°C 16.1°F-8.8°C 65% Calm Calm 1.2 mph1.9 kmh 30.41 in1029.8 mb - 0.00 in0.0 mm 0.00 in0.0 mm
08:00 AM 26.3°F-3.2°C 16.5°F-8.6°C 66% 2.3 mph N3.7 kmh N 3.5 mph5.6 kmh 30.42 in1030.1 mb - 0.00 in0.0 mm 0.00 in0.0 mm
08:10 AM 26.3°F-3.2°C 16.5°F-8.6°C 66% 4.6 mph N7.4 kmh N 8.1 mph13.0 kmh 30.42 in1030.1 mb - 0.00 in0.0 mm 0.00 in0.0 mm
08:20 AM 26.1°F-3.3°C 15.9°F-8.9°C 65% 3.5 mph N5.6 kmh N 3.5 mph5.6 kmh 30.43 in1030.5 mb - 0.00 in0.0 mm 0.00 in0.0 mm
08:30 AM 26.1°F-3.3°C 15.9°F-8.9°C 65% 4.6 mph N7.4 kmh N 6.9 mph11.1 kmh 30.43 in1030.5 mb - 0.00 in0.0 mm 0.00 in0.0 mm
08:40 AM 26.1°F-3.3°C 15.9°F-8.9°C 65% 1.2 mph N1.9 kmh N 3.5 mph5.6 kmh 30.43 in1030.5 mb - 0.00 in0.0 mm 0.00 in0.0 mm
08:50 AM 26.2°F-3.2°C 16.0°F-8.9°C 65% 1.2 mph NNE1.9 kmh NNE 3.5 mph5.6 kmh 30.44 in1030.8 mb - 0.00 in0.0 mm 0.00 in0.0 mm
09:00 AM 26.4°F-3.1°C 16.2°F-8.8°C 65% 2.3 mph NNW3.7 kmh NNW 4.6 mph7.4 kmh 30.44 in1030.8 mb - 0.00 in0.0 mm 0.00 in0.0 mm
09:10 AM 26.6°F-3.0°C 16.4°F-8.7°C 65% 1.2 mph NNW1.9 kmh NNW 3.5 mph5.6 kmh 30.44 in1030.8 mb - 0.00 in0.0 mm 0.00 in0.0 mm
09:20 AM 26.7°F-2.9°C 16.5°F-8.6°C 65% 1.2 mph NNW1.9 kmh NNW 6.9 mph11.1 kmh 30.44 in1030.8 mb - 0.00 in0.0 mm 0.00 in0.0 mm
09:30 AM 26.9°F-2.8°C 16.7°F-8.5°C 65% Calm Calm 1.2 mph1.9 kmh 30.45 in1031.2 mb - 0.00 in0.0 mm 0.00 in0.0 mm
09:40 AM 27.1°F-2.7°C 16.9°F-8.4°C 65% 1.2 mph NNW1.9 kmh NNW 3.5 mph5.6 kmh 30.45 in1031.2 mb - 0.00 in0.0 mm 0.00 in0.0 mm
09:50 AM 27.3°F-2.6°C 17.1°F-8.3°C 65% Calm Calm 2.3 mph3.7 kmh 30.46 in1031.5 mb - 0.00 in0.0 mm 0.00 in0.0 mm
10:00 AM 27.6°F-2.4°C 17.0°F-8.3°C 64% 2.3 mph NNW3.7 kmh NNW 1.2 mph1.9 kmh 30.46 in1031.5 mb - 0.00 in0.0 mm 0.00 in0.0 mm
10:10 AM 27.8°F-2.3°C 16.5°F-8.6°C 62% 5.8 mph N9.3 kmh N 6.9 mph11.1 kmh 30.46 in1031.5 mb - 0.00 in0.0 mm 0.00 in0.0 mm
10:20 AM 28.0°F-2.2°C 16.6°F-8.6°C 62% 2.3 mph N3.7 kmh N 3.5 mph5.6 kmh 30.46 in1031.5 mb - 0.00 in0.0 mm 0.00 in0.0 mm
10:30 AM 28.1°F-2.2°C 16.8°F-8.4°C 62% 1.2 mph N1.9 kmh N 3.5 mph5.6 kmh 30.47 in1031.8 mb - 0.00 in0.0 mm 0.00 in0.0 mm
10:40 AM 28.3°F-2.1°C 17.0°F-8.3°C 62% 2.3 mph N3.7 kmh N 4.6 mph7.4 kmh 30.47 in1031.8 mb - 0.00 in0.0 mm 0.00 in0.0 mm
10:50 AM 28.5°F-1.9°C 17.1°F-8.3°C 62% 2.3 mph N3.7 kmh N 3.5 mph5.6 kmh 30.47 in1031.8 mb - 0.00 in0.0 mm 0.00 in0.0 mm
11:00 AM 28.9°F-1.7°C 17.5°F-8.1°C 62% Calm Calm 1.2 mph1.9 kmh 30.47 in1031.8 mb - 0.00 in0.0 mm 0.00 in0.0 mm
11:10 AM 29.2°F-1.6°C 17.4°F-8.1°C 61% 2.3 mph N3.7 kmh N 5.8 mph9.3 kmh 30.47 in1031.8 mb - 0.00 in0.0 mm 0.00 in0.0 mm
11:20 AM 29.5°F-1.4°C 17.7°F-7.9°C 61% 2.3 mph N3.7 kmh N 5.8 mph9.3 kmh 30.47 in1031.8 mb - 0.00 in0.0 mm 0.00 in0.0 mm
11:30 AM 29.8°F-1.2°C 18.0°F-7.8°C 61% 2.3 mph N3.7 kmh N 4.6 mph7.4 kmh 30.47 in1031.8 mb - 0.00 in0.0 mm 0.00 in0.0 mm
11:40 AM 30.1°F-1.1°C 17.9°F-7.8°C 60% 3.5 mph N5.6 kmh N 5.8 mph9.3 kmh 30.47 in1031.8 mb - 0.00 in0.0 mm 0.00 in0.0 mm
11:50 AM 30.2°F-1.0°C 17.6°F-8.0°C 59% 3.5 mph N5.6 kmh N 3.5 mph5.6 kmh 30.46 in1031.5 mb - 0.00 in0.0 mm 0.00 in0.0 mm
12:00 PM 30.2°F-1.0°C 17.6°F-8.0°C 59% Calm Calm 2.3 mph3.7 kmh 30.46 in1031.5 mb - 0.00 in0.0 mm 0.00 in0.0 mm
12:10 PM 30.8°F-0.7°C 17.7°F-7.9°C 58% 2.3 mph N3.7 kmh N 3.5 mph5.6 kmh 30.46 in1031.5 mb - 0.00 in0.0 mm 0.00 in0.0 mm
12:20 PM 31.1°F-0.5°C 17.6°F-8.0°C 57% 2.3 mph N3.7 kmh N 3.5 mph5.6 kmh 30.45 in1031.2 mb - 0.00 in0.0 mm 0.00 in0.0 mm
12:30 PM 31.7°F-0.2°C 18.2°F-7.7°C 57% 2.3 mph NNE3.7 kmh NNE 3.5 mph5.6 kmh 30.45 in1031.2 mb - 0.00 in0.0 mm 0.00 in0.0 mm
12:40 PM 32.2°F0.1°C 18.3°F-7.6°C 56% 1.2 mph NNE1.9 kmh NNE 1.2 mph1.9 kmh 30.45 in1031.2 mb - 0.00 in0.0 mm 0.00 in0.0 mm
12:50 PM 32.6°F0.3°C 18.6°F-7.4°C 56% 4.6 mph NNE7.4 kmh NNE 6.9 mph11.1 kmh 30.44 in1030.8 mb - 0.00 in0.0 mm 0.00 in0.0 mm
01:00 PM 32.3°F0.2°C 18.8°F-7.3°C 57% 2.3 mph NNE3.7 kmh NNE 4.6 mph7.4 kmh 30.44 in1030.8 mb - 0.00 in0.0 mm 0.00 in0.0 mm
01:10 PM 33.2°F0.7°C 19.2°F-7.1°C 56% Calm Calm 1.2 mph1.9 kmh 30.43 in1030.5 mb - 0.00 in0.0 mm 0.00 in0.0 mm
01:20 PM 33.4°F0.8°C 18.9°F-7.3°C 55% 3.5 mph NNE5.6 kmh NNE 3.5 mph5.6 kmh 30.43 in1030.5 mb - 0.00 in0.0 mm 0.00 in0.0 mm
01:30 PM 33.9°F1.1°C 18.5°F-7.5°C 53% 1.2 mph NE1.9 kmh NE 1.2 mph1.9 kmh 30.42 in1030.1 mb - 0.00 in0.0 mm 0.00 in0.0 mm
01:40 PM 33.8°F1.0°C 18.9°F-7.3°C 54% Calm Calm 1.2 mph1.9 kmh 30.41 in1029.8 mb - 0.00 in0.0 mm 0.00 in0.0 mm
01:50 PM 33.8°F1.0°C 18.4°F-7.6°C 53% 1.2 mph NE1.9 kmh NE 3.5 mph5.6 kmh 30.41 in1029.8 mb - 0.00 in0.0 mm 0.00 in0.0 mm
02:00 PM 34.0°F1.1°C 18.2°F-7.7°C 52% 3.5 mph NNE5.6 kmh NNE 3.5 mph5.6 kmh 30.41 in1029.8 mb - 0.00 in0.0 mm 0.00 in0.0 mm
02:10 PM 34.3°F1.3°C 19.0°F-7.2°C 53% Calm Calm 1.2 mph1.9 kmh 30.40 in1029.5 mb - 0.00 in0.0 mm 0.00 in0.0 mm
02:20 PM 34.6°F1.4°C 18.3°F-7.6°C 51% 2.3 mph NNE3.7 kmh NNE 4.6 mph7.4 kmh 30.40 in1029.5 mb - 0.00 in0.0 mm 0.00 in0.0 mm
02:30 PM 35.5°F1.9°C 20.0°F-6.7°C 53% Calm Calm -- 30.39 in1029.1 mb - 0.00 in0.0 mm 0.00 in0.0 mm
02:40 PM 35.9°F2.2°C 19.1°F-7.2°C 50% Calm Calm 1.2 mph1.9 kmh 30.39 in1029.1 mb - 0.00 in0.0 mm 0.00 in0.0 mm
02:50 PM 36.5°F2.5°C 19.6°F-6.9°C 50% Calm Calm 1.2 mph1.9 kmh 30.39 in1029.1 mb - 0.00 in0.0 mm 0.00 in0.0 mm
03:00 PM 36.5°F2.5°C 20.5°F-6.4°C 52% Calm Calm -- 30.38 in1028.8 mb - 0.00 in0.0 mm 0.00 in0.0 mm
03:10 PM 38.2°F3.4°C 20.7°F-6.3°C 49% Calm Calm 1.2 mph1.9 kmh 30.38 in1028.8 mb - 0.00 in0.0 mm 0.00 in0.0 mm
03:20 PM 39.1°F3.9°C 20.5°F-6.4°C 47% Calm Calm -- 30.38 in1028.8 mb - 0.00 in0.0 mm 0.00 in0.0 mm
03:30 PM 38.8°F3.8°C 20.7°F-6.3°C 48% Calm Calm -- 30.38 in1028.8 mb - 0.00 in0.0 mm 0.00 in0.0 mm
03:40 PM 36.8°F2.7°C 20.3°F-6.5°C 51% Calm Calm 2.3 mph3.7 kmh 30.37 in1028.4 mb - 0.00 in0.0 mm 0.00 in0.0 mm
03:50 PM 38.6°F3.7°C 21.0°F-6.1°C 49% Calm Calm -- 30.37 in1028.4 mb - 0.00 in0.0 mm 0.00 in0.0 mm
04:00 PM 38.8°F3.8°C 20.3°F-6.5°C 47% Calm Calm -- 30.37 in1028.4 mb - 0.00 in0.0 mm 0.00 in0.0 mm
04:10 PM 39.6°F4.2°C 21.0°F-6.1°C 47% Calm Calm -- 30.37 in1028.4 mb - 0.00 in0.0 mm 0.00 in0.0 mm
04:20 PM 37.6°F3.1°C 20.2°F-6.6°C 49% Calm Calm -- 30.37 in1028.4 mb - 0.00 in0.0 mm 0.00 in0.0 mm
04:30 PM 38.4°F3.6°C 20.9°F-6.2°C 49% Calm Calm -- 30.37 in1028.4 mb - 0.00 in0.0 mm 0.00 in0.0 mm
04:40 PM 39.1°F3.9°C 20.5°F-6.4°C 47% Calm Calm -- 30.37 in1028.4 mb - 0.00 in0.0 mm 0.00 in0.0 mm
04:50 PM 38.7°F3.7°C 20.7°F-6.3°C 48% Calm Calm -- 30.36 in1028.1 mb - 0.00 in0.0 mm 0.00 in0.0 mm
05:00 PM 38.2°F3.4°C 20.7°F-6.3°C 49% 1.2 mph S1.9 kmh S 1.2 mph1.9 kmh 30.36 in1028.1 mb - 0.00 in0.0 mm 0.00 in0.0 mm
05:10 PM 39.0°F3.9°C 21.4°F-5.9°C 49% Calm Calm -- 30.36 in1028.1 mb - 0.00 in0.0 mm 0.00 in0.0 mm
05:20 PM 39.0°F3.9°C 20.5°F-6.4°C 47% Calm Calm -- 30.35 in1027.8 mb - 0.00 in0.0 mm 0.00 in0.0 mm
05:30 PM 37.8°F3.2°C 20.3°F-6.5°C 49% Calm Calm -- 30.35 in1027.8 mb - 0.00 in0.0 mm 0.00 in0.0 mm
05:40 PM 36.9°F2.7°C 19.9°F-6.7°C 50% Calm Calm -- 30.35 in1027.8 mb - 0.00 in0.0 mm 0.00 in0.0 mm
05:50 PM 36.2°F2.3°C 20.3°F-6.5°C 52% Calm Calm -- 30.35 in1027.8 mb - 0.00 in0.0 mm 0.00 in0.0 mm
06:00 PM 35.7°F2.1°C 20.3°F-6.5°C 53% Calm Calm -- 30.35 in1027.8 mb - 0.00 in0.0 mm 0.00 in0.0 mm
06:10 PM 35.5°F1.9°C 20.1°F-6.6°C 53% Calm Calm -- 30.35 in1027.8 mb - 0.00 in0.0 mm 0.00 in0.0 mm
06:20 PM 35.5°F1.9°C 20.0°F-6.7°C 53% Calm Calm -- 30.35 in1027.8 mb - 0.00 in0.0 mm 0.00 in0.0 mm
06:30 PM 35.0°F1.7°C 20.0°F-6.7°C 54% Calm Calm -- 30.35 in1027.8 mb - 0.00 in0.0 mm 0.00 in0.0 mm
06:40 PM 34.8°F1.6°C 19.8°F-6.8°C 54% Calm Calm -- 30.36 in1028.1 mb - 0.00 in0.0 mm 0.00 in0.0 mm
06:50 PM 34.6°F1.4°C 19.6°F-6.9°C 54% Calm Calm -- 30.36 in1028.1 mb - 0.00 in0.0 mm 0.00 in0.0 mm
07:00 PM 34.4°F1.3°C 19.5°F-6.9°C 54% Calm Calm -- 30.36 in1028.1 mb - 0.00 in0.0 mm 0.00 in0.0 mm
07:10 PM 34.1°F1.2°C 19.6°F-6.9°C 55% Calm Calm -- 30.36 in1028.1 mb - 0.00 in0.0 mm 0.00 in0.0 mm
07:20 PM 33.6°F0.9°C 19.6°F-6.9°C 56% Calm Calm -- 30.36 in1028.1 mb - 0.00 in0.0 mm 0.00 in0.0 mm
07:30 PM 33.2°F0.7°C 19.6°F-6.9°C 57% Calm Calm -- 30.36 in1028.1 mb - 0.00 in0.0 mm 0.00 in0.0 mm
07:40 PM 32.7°F0.4°C 19.1°F-7.2°C 57% Calm Calm -- 30.36 in1028.1 mb - 0.00 in0.0 mm 0.00 in0.0 mm
07:50 PM 32.0°F0.0°C 18.9°F-7.3°C 58% Calm Calm -- 30.36 in1028.1 mb - 0.00 in0.0 mm 0.00 in0.0 mm
08:00 PM 31.5°F-0.3°C 18.8°F-7.3°C 59% Calm Calm -- 30.36 in1028.1 mb - 0.00 in0.0 mm 0.00 in0.0 mm
08:10 PM 31.1°F-0.5°C 18.4°F-7.6°C 59% Calm Calm -- 30.36 in1028.1 mb - 0.00 in0.0 mm 0.00 in0.0 mm
08:20 PM 30.5°F-0.8°C 18.3°F-7.6°C 60% Calm Calm -- 30.36 in1028.1 mb - 0.00 in0.0 mm 0.00 in0.0 mm
08:30 PM 30.1°F-1.1°C 17.9°F-7.8°C 60% Calm Calm -- 30.36 in1028.1 mb - 0.00 in0.0 mm 0.00 in0.0 mm
08:40 PM 29.6°F-1.3°C 17.4°F-8.1°C 60% Calm Calm -- 30.36 in1028.1 mb - 0.00 in0.0 mm 0.00 in0.0 mm
08:50 PM 29.1°F-1.6°C 17.3°F-8.2°C 61% Calm Calm 1.2 mph1.9 kmh 30.36 in1028.1 mb - 0.00 in0.0 mm 0.00 in0.0 mm
09:00 PM 28.5°F-1.9°C 16.7°F-8.5°C 61% Calm Calm 1.2 mph1.9 kmh 30.36 in1028.1 mb - 0.00 in0.0 mm 0.00 in0.0 mm
09:10 PM 27.9°F-2.3°C 16.6°F-8.6°C 62% Calm Calm -- 30.37 in1028.4 mb - 0.00 in0.0 mm 0.00 in0.0 mm
09:20 PM 27.5°F-2.5°C 16.2°F-8.8°C 62% Calm Calm -- 30.37 in1028.4 mb - 0.00 in0.0 mm 0.00 in0.0 mm
09:30 PM 27.1°F-2.7°C 15.8°F-9.0°C 62% Calm Calm -- 30.37 in1028.4 mb - 0.00 in0.0 mm 0.00 in0.0 mm
09:40 PM 26.6°F-3.0°C 15.7°F-9.1°C 63% Calm Calm 2.3 mph3.7 kmh 30.37 in1028.4 mb - 0.00 in0.0 mm 0.00 in0.0 mm
09:50 PM 26.3°F-3.2°C 15.4°F-9.2°C 63% Calm Calm -- 30.37 in1028.4 mb - 0.00 in0.0 mm 0.00 in0.0 mm
10:00 PM 25.9°F-3.4°C 15.0°F-9.4°C 63% Calm Calm -- 30.37 in1028.4 mb - 0.00 in0.0 mm 0.00 in0.0 mm
10:10 PM 25.6°F-3.6°C 15.1°F-9.4°C 64% Calm Calm -- 30.37 in1028.4 mb - 0.00 in0.0 mm 0.00 in0.0 mm
10:20 PM 25.3°F-3.7°C 15.2°F-9.3°C 65% Calm Calm 3.5 mph5.6 kmh 30.37 in1028.4 mb - 0.00 in0.0 mm 0.00 in0.0 mm
10:30 PM 25.0°F-3.9°C 14.9°F-9.5°C 65% Calm Calm 2.3 mph3.7 kmh 30.38 in1028.8 mb - 0.00 in0.0 mm 0.00 in0.0 mm
10:40 PM 24.7°F-4.1°C 14.9°F-9.5°C 66% 1.2 mph SW1.9 kmh SW 2.3 mph3.7 kmh 30.38 in1028.8 mb - 0.00 in0.0 mm 0.00 in0.0 mm
10:50 PM 24.5°F-4.2°C 15.1°F-9.4°C 67% 2.3 mph SW3.7 kmh SW 4.6 mph7.4 kmh 30.38 in1028.8 mb - 0.00 in0.0 mm 0.00 in0.0 mm
11:00 PM 24.4°F-4.2°C 15.3°F-9.3°C 68% Calm Calm 2.3 mph3.7 kmh 30.38 in1028.8 mb - 0.00 in0.0 mm 0.00 in0.0 mm
11:10 PM 24.1°F-4.4°C 15.1°F-9.4°C 68% 2.3 mph SW3.7 kmh SW 3.5 mph5.6 kmh 30.38 in1028.8 mb - 0.00 in0.0 mm 0.00 in0.0 mm
11:20 PM 23.9°F-4.5°C 14.9°F-9.5°C 68% Calm Calm 2.3 mph3.7 kmh 30.38 in1028.8 mb - 0.00 in0.0 mm 0.00 in0.0 mm
11:30 PM 23.6°F-4.7°C 14.6°F-9.7°C 68% Calm Calm 3.5 mph5.6 kmh 30.38 in1028.8 mb - 0.00 in0.0 mm 0.00 in0.0 mm
11:40 PM 23.3°F-4.8°C 14.6°F-9.7°C 69% Calm Calm 3.5 mph5.6 kmh 30.39 in1029.1 mb - 0.00 in0.0 mm 0.00 in0.0 mm
11:50 PM 23.0°F-5.0°C 14.3°F-9.8°C 69% Calm Calm 2.3 mph3.7 kmh 30.39 in1029.1 mb - 0.00 in0.0 mm 0.00 in0.0 mm